Time;durP1;ratioP1;P1;durP2;ratioP2;P2;SDS_P1;SDS_P2;PMS_P1;PMS_P2;Temp;Humidity;BMP_temperature;BMP_pressure;BME280_temperature;BME280_humidity;BME280_pressure;Samples;Min_cycle;Max_cycle;Signal;HPM_P1;HPM_P2
2022/12/19 00:00:47;;;;;;;33.37;14.77;;;-3.60;99.90;;;-3.18;100.00;98959.56;4998512;28;20481;-83
2022/12/19 00:03:17;;;;;;;39.27;17.43;;;-3.60;99.90;;;-3.18;100.00;98944.22;4998970;28;20567;-82
2022/12/19 00:05:46;;;;;;;34.50;15.43;;;-3.60;99.90;;;-3.17;100.00;98952.72;5001929;28;20617;-83
2022/12/19 00:08:17;;;;;;;34.17;15.70;;;-3.60;99.90;;;-3.15;100.00;98943.25;4996966;28;20548;-83
2022/12/19 00:10:57;;;;;;;44.17;15.90;;;-3.60;99.90;;;-3.15;100.00;98938.13;4998972;28;20463;-84
2022/12/19 00:13:30;;;;;;;36.53;14.90;;;-3.60;99.90;;;-3.13;100.00;98949.13;4999719;28;20476;-83
2022/12/19 00:16:14;;;;;;;34.77;17.03;;;-3.60;99.90;;;-3.12;100.00;98943.06;5000391;28;20465;-82
2022/12/19 00:18:49;;;;;;;35.43;16.67;;;-3.60;99.90;;;-3.10;100.00;98936.16;4999924;28;20547;-83
2022/12/19 00:21:26;;;;;;;37.43;16.00;;;-3.60;99.90;;;-3.09;100.00;98940.38;5000504;28;20466;-83
2022/12/19 00:23:57;;;;;;;36.30;15.87;;;-3.50;99.90;;;-3.07;100.00;98941.94;4997061;28;20495;-83
2022/12/19 00:26:28;;;;;;;35.90;16.57;;;-3.50;99.90;;;-3.06;100.00;98946.16;4996546;28;21026;-83
2022/12/19 00:29:01;;;;;;;34.47;15.77;;;-3.50;99.90;;;-3.04;100.00;98946.06;5000523;28;20479;-83
2022/12/19 00:31:34;;;;;;;33.20;16.97;;;-3.50;99.90;;;-3.01;100.00;98955.31;4999073;28;21008;-83
2022/12/19 00:34:04;;;;;;;37.00;15.30;;;-3.50;99.90;;;-3.00;100.00;98952.69;4999916;28;20556;-83
2022/12/19 00:36:34;;;;;;;44.27;16.97;;;-3.40;99.90;;;-2.99;100.00;98959.47;5001682;28;20473;-83
2022/12/19 00:39:07;;;;;;;31.80;16.23;;;-3.40;99.90;;;-2.99;100.00;98964.56;5001358;28;20901;-83
2022/12/19 00:41:39;;;;;;;39.20;17.10;;;-3.50;99.90;;;-2.98;100.00;98961.09;4997279;28;20494;-83
2022/12/19 00:44:13;;;;;;;33.23;15.00;;;-3.40;99.90;;;-2.96;100.00;98954.19;5001077;28;20501;-83
2022/12/19 00:46:43;;;;;;;36.87;15.77;;;-3.40;99.90;;;-2.93;100.00;98948.06;5000413;28;20989;-82
2022/12/19 00:49:20;;;;;;;36.43;15.40;;;-3.40;99.90;;;-2.92;100.00;98953.13;4998640;28;20541;-82
2022/12/19 00:51:50;;;;;;;36.73;15.70;;;-3.30;99.90;;;-2.90;100.00;98951.28;4996373;28;20499;-83
2022/12/19 00:54:21;;;;;;;37.00;15.63;;;-3.30;99.90;;;-2.89;100.00;98941.88;4996463;28;20467;-83
2022/12/19 00:56:52;;;;;;;35.77;17.43;;;-3.30;99.90;;;-2.87;100.00;98940.88;4998580;28;21162;-83
2022/12/19 00:59:21;;;;;;;38.10;15.70;;;-3.30;99.90;;;-2.87;100.00;98935.78;4998959;28;20548;-83
2022/12/19 01:01:55;;;;;;;44.30;17.03;;;-3.20;99.90;;;-2.84;100.00;98934.78;4999287;28;20492;-83
2022/12/19 01:04:26;;;;;;;44.57;17.60;;;-3.20;99.90;;;-2.84;100.00;98940.72;4999613;28;20493;-83
2022/12/19 01:06:58;;;;;;;32.10;14.70;;;-3.20;99.90;;;-2.84;100.00;98927.94;4999828;28;20480;-83
2022/12/19 01:09:34;;;;;;;40.37;16.37;;;-3.20;99.90;;;-2.84;100.00;98917.69;5001206;28;20833;-83
2022/12/19 01:14:54;;;;;;;38.27;18.33;;;-3.10;99.90;;;-2.83;100.00;98919.34;5005261;28;20458;-83
2022/12/19 01:17:34;;;;;;;33.93;13.97;;;-3.30;99.90;;;-2.82;100.00;98905.66;5002808;28;20465;-84
2022/12/19 01:20:14;;;;;;;34.37;15.23;;;-3.20;99.90;;;-2.79;100.00;98884.19;5003431;28;20460;-83
2022/12/19 01:22:46;;;;;;;28.57;14.97;;;-3.20;99.90;;;-2.82;100.00;98936.38;5004335;28;21244;-83
2022/12/19 01:25:19;;;;;;;39.27;18.50;;;-3.20;99.90;;;-2.81;100.00;98921.84;5000862;28;20509;-82
2022/12/19 01:27:48;;;;;;;36.80;15.40;;;-3.30;99.90;;;-2.81;100.00;98922.66;5001496;28;21515;-82
2022/12/19 01:30:17;;;;;;;29.37;15.03;;;-3.30;99.90;;;-2.81;100.00;98932.09;5003976;28;20485;-84
2022/12/19 01:32:48;;;;;;;38.17;17.43;;;-3.30;99.90;;;-2.80;100.00;98924.31;5001119;28;20491;-83
2022/12/19 01:35:17;;;;;;;31.30;16.50;;;-3.20;99.90;;;-2.77;100.00;98920.75;5004077;28;20469;-83
2022/12/19 01:37:51;;;;;;;37.53;17.47;;;-3.20;99.90;;;-2.78;100.00;98912.28;5002016;28;20557;-82
2022/12/19 01:40:37;;;;;;;43.40;16.60;;;-3.10;99.90;;;-2.74;100.00;98916.28;5000625;28;20468;-82
2022/12/19 01:43:13;;;;;;;28.07;14.97;;;-3.20;99.90;;;-2.73;100.00;98907.72;5001412;28;20528;-83
2022/12/19 01:45:42;;;;;;;41.40;16.13;;;-3.20;99.90;;;-2.72;100.00;98908.53;5000688;28;20532;-83
2022/12/19 01:48:34;;;;;;;41.37;17.03;;;-3.20;99.90;;;-2.72;100.00;98906.81;5002625;28;20953;-83
2022/12/19 01:51:13;;;;;;;31.67;14.83;;;-3.20;99.90;;;-2.70;100.00;98917.78;5000053;28;20466;-83
2022/12/19 01:53:49;;;;;;;37.43;16.17;;;-3.20;99.90;;;-2.69;100.00;98922.00;5003219;28;20473;-83
2022/12/19 01:56:25;;;;;;;34.23;14.97;;;-3.10;99.90;;;-2.68;100.00;98917.72;5003433;28;20523;-83
2022/12/19 01:59:00;;;;;;;39.47;17.00;;;-3.10;99.90;;;-2.66;100.00;98915.88;5000063;28;20507;-83
2022/12/19 02:01:35;;;;;;;37.07;16.70;;;-3.10;99.90;;;-2.66;100.00;98926.94;4999683;28;20544;-83
2022/12/19 02:04:20;;;;;;;35.90;15.73;;;-3.10;99.90;;;-2.65;100.00;98917.53;4999678;28;20466;-84
2022/12/19 02:06:54;;;;;;;32.03;14.87;;;-3.10;99.90;;;-2.65;100.00;98918.38;5001291;28;20463;-83
2022/12/19 02:09:26;;;;;;;44.73;17.40;;;-3.10;99.90;;;-2.64;100.00;98920.00;5000679;28;20495;-83
2022/12/19 02:12:00;;;;;;;36.27;15.57;;;-3.10;99.90;;;-2.63;100.00;98926.78;5000044;28;20581;-83
2022/12/19 02:14:30;;;;;;;31.77;15.90;;;-3.10;99.90;;;-2.64;100.00;98927.69;5002421;28;21092;-84
2022/12/19 02:17:10;;;;;;;36.17;15.80;;;-3.20;99.90;;;-2.62;100.00;98914.81;4999568;28;20560;-83
2022/12/19 02:20:25;;;;;;;39.00;16.20;;;-3.10;99.90;;;-2.61;100.00;98922.41;5003028;28;20477;-83
2022/12/19 02:23:28;;;;;;;35.53;16.00;;;-3.10;99.90;;;-2.61;100.00;98917.31;4999414;28;20527;-83
2022/12/19 02:26:24;;;;;;;40.57;16.10;;;-3.10;99.90;;;-2.60;100.00;98912.97;4999489;28;20533;-83
2022/12/19 02:29:47;;;;;;;24.20;13.70;;;-3.10;99.90;;;-2.59;100.00;98905.22;5004798;28;20467;-84
2022/12/19 02:32:26;;;;;;;34.10;14.67;;;-3.10;99.90;;;-2.57;100.00;98905.97;5002703;28;20539;-84
2022/12/19 02:35:07;;;;;;;40.47;17.30;;;-3.10;99.90;;;-2.55;100.00;98905.88;5001437;28;20493;-83
2022/12/19 02:37:50;;;;;;;41.93;16.00;;;-3.10;99.90;;;-2.53;100.00;98908.38;5002753;28;20525;-83
2022/12/19 02:40:27;;;;;;;36.90;16.47;;;-3.00;99.90;;;-2.53;100.00;98910.00;5002397;28;20466;-84
2022/12/19 02:43:01;;;;;;;29.43;14.83;;;-3.00;99.90;;;-2.51;100.00;98911.66;5003441;28;20484;-83
2022/12/19 02:45:36;;;;;;;35.80;16.23;;;-3.00;99.90;;;-2.53;100.00;98899.78;5002153;28;21050;-84
2022/12/19 02:48:09;;;;;;;40.40;17.90;;;-3.00;99.90;;;-2.50;100.00;98905.66;5002697;28;21188;-83
2022/12/19 02:50:45;;;;;;;26.93;14.20;;;-3.00;99.90;;;-2.50;100.00;98905.66;5003294;28;20464;-83
2022/12/19 02:53:18;;;;;;;39.70;17.77;;;-3.00;99.90;;;-2.49;100.00;98902.97;5004267;28;20967;-83
2022/12/19 02:56:10;;;;;;;31.70;16.20;;;-3.00;99.90;;;-2.46;100.00;98896.91;5005089;28;20526;-83
2022/12/19 02:59:02;;;;;;;30.57;14.93;;;-3.00;99.90;;;-2.43;100.00;98889.84;5000592;28;20564;-83
2022/12/19 03:01:47;;;;;;;39.90;17.50;;;-2.70;99.90;;;-2.39;100.00;98893.06;4999030;28;21123;-83
2022/12/19 03:04:41;;;;;;;41.90;16.97;;;-2.70;99.90;;;-2.39;100.00;98885.38;5002113;28;20471;-82
2022/12/19 03:07:28;;;;;;;35.83;15.73;;;-2.80;99.90;;;-2.38;100.00;98875.06;5002231;28;20462;-84
2022/12/19 03:10:13;;;;;;;40.33;17.80;;;-2.80;99.90;;;-2.35;100.00;98871.50;5002344;28;20498;-83
2022/12/19 03:12:53;;;;;;;28.20;15.27;;;-2.80;99.90;;;-2.35;100.00;98863.81;5001455;28;20470;-83
2022/12/19 03:15:24;;;;;;;34.80;16.37;;;-2.80;99.90;;;-2.31;100.00;98876.38;5001019;28;20564;-83
2022/12/19 03:18:00;;;;;;;32.57;15.60;;;-2.70;99.90;;;-2.29;100.00;98878.84;4999821;28;20569;-83
2022/12/19 03:20:44;;;;;;;42.83;16.10;;;-2.70;99.90;;;-2.29;100.00;98892.44;5003124;28;20602;-83
2022/12/19 03:23:15;;;;;;;32.60;14.13;;;-2.70;99.90;;;-2.28;100.00;98894.13;5005071;28;20531;-83
2022/12/19 03:25:52;;;;;;;39.37;18.00;;;-2.70;99.90;;;-2.26;100.00;98899.16;4998924;28;20530;-83
2022/12/19 03:28:33;;;;;;;32.80;16.20;;;-2.70;99.90;;;-2.24;100.00;98881.97;5000154;28;20454;-82
2022/12/19 03:31:07;;;;;;;33.23;15.07;;;-2.70;99.90;;;-2.23;100.00;98883.63;5004086;28;20462;-83
2022/12/19 03:33:42;;;;;;;32.37;15.57;;;-2.70;99.90;;;-2.22;100.00;98875.03;5001717;28;20456;-82
2022/12/19 03:36:20;;;;;;;41.30;18.10;;;-2.60;99.90;;;-2.19;100.00;98885.09;5002878;28;20465;-83
2022/12/19 03:38:52;;;;;;;32.73;16.17;;;-2.60;99.90;;;-2.20;100.00;98871.47;5004421;28;20493;-83
2022/12/19 03:44:11;;;;;;;42.67;17.27;;;-2.50;99.90;;;-2.16;100.00;98856.75;5002605;28;20522;-83
2022/12/19 03:46:51;;;;;;;47.23;16.77;;;-2.50;99.90;;;-2.17;100.00;98857.66;5003333;28;20495;-83
2022/12/19 03:49:21;;;;;;;34.20;15.63;;;-2.50;99.90;;;-2.13;100.00;98859.97;5005088;28;20553;-83
2022/12/19 03:52:01;;;;;;;36.83;16.60;;;-2.40;99.90;;;-2.13;100.00;98856.56;5000106;28;20483;-83
2022/12/19 03:54:36;;;;;;;35.80;16.30;;;-2.40;99.90;;;-2.14;100.00;98852.34;5002617;28;20504;-84
2022/12/19 03:57:10;;;;;;;29.37;15.63;;;-2.40;99.90;;;-2.14;100.00;98849.78;5004912;28;20539;-84
2022/12/19 03:59:49;;;;;;;35.23;17.33;;;-2.40;99.90;;;-2.13;100.00;98854.00;5003290;28;20544;-84
2022/12/19 04:02:23;;;;;;;37.93;15.90;;;-2.40;99.90;;;-2.13;100.00;98854.84;4999446;28;20499;-85
2022/12/19 04:05:00;;;;;;;46.37;17.83;;;-2.50;99.90;;;-2.15;100.00;98850.69;4996831;28;20464;-85
2022/12/19 04:07:34;;;;;;;30.17;16.73;;;-2.50;99.90;;;-2.12;100.00;98858.22;4997425;28;21057;-85
2022/12/19 04:10:11;;;;;;;43.23;18.33;;;-2.40;99.90;;;-2.15;100.00;98845.56;5001709;28;20475;-85
2022/12/19 04:12:49;;;;;;;46.60;17.97;;;-2.50;99.90;;;-2.17;100.00;98848.22;5000074;28;20470;-79
2022/12/19 04:15:25;;;;;;;33.97;16.40;;;-2.50;99.90;;;-2.16;100.00;98847.34;5002440;28;20461;-85
2022/12/19 04:18:00;;;;;;;35.13;16.00;;;-2.60;99.90;;;-2.16;100.00;98854.19;4998832;28;20484;-84
2022/12/19 04:20:31;;;;;;;38.27;17.47;;;-2.70;99.90;;;-2.15;100.00;98859.19;4999463;28;20508;-86
2022/12/19 04:23:11;;;;;;;34.00;16.63;;;-2.70;99.90;;;-2.16;100.00;98855.00;4996910;28;20942;-85
2022/12/19 04:25:48;;;;;;;40.97;17.97;;;-2.70;99.90;;;-2.12;100.00;98860.78;4996139;28;20489;-85
2022/12/19 04:28:25;;;;;;;32.70;15.77;;;-2.70;99.90;;;-2.12;100.00;98847.97;5030654;28;20457;-84
2022/12/19 04:30:55;;;;;;;35.73;16.80;;;-2.60;99.90;;;-2.10;100.00;98848.69;4997028;28;20570;-84
2022/12/19 04:33:25;;;;;;;43.53;17.00;;;-2.60;99.90;;;-2.09;100.00;98843.50;5002539;28;20532;-84
2022/12/19 04:35:56;;;;;;;31.50;16.17;;;-2.50;99.90;;;-2.07;100.00;98838.28;4997214;28;20499;-84
2022/12/19 04:38:27;;;;;;;43.43;18.10;;;-2.50;99.90;;;-2.05;100.00;98844.16;5002470;28;20468;-86
2022/12/19 04:40:58;;;;;;;33.90;16.40;;;-2.40;99.90;;;-2.05;100.00;98842.38;5002266;28;20538;-85
2022/12/19 04:43:28;;;;;;;38.30;17.50;;;-2.40;99.90;;;-2.05;100.00;98847.50;5003486;28;20466;-86
2022/12/19 04:45:58;;;;;;;42.00;17.00;;;-2.40;99.90;;;-2.05;100.00;98826.22;5001786;28;20487;-85
2022/12/19 04:48:29;;;;;;;35.70;17.70;;;-2.40;99.90;;;-2.03;100.00;98835.47;4999019;28;20470;-86
2022/12/19 04:50:58;;;;;;;41.87;16.30;;;-2.40;99.90;;;-2.01;100.00;98826.88;5003617;28;20470;-85
2022/12/19 04:53:29;;;;;;;32.63;14.73;;;-2.40;99.90;;;-2.04;100.00;98815.88;5001013;28;21015;-86
2022/12/19 04:56:01;;;;;;;37.30;17.97;;;-2.50;99.90;;;-2.04;100.00;98817.59;4999729;28;20493;-85
2022/12/19 04:58:31;;;;;;;43.47;17.13;;;-2.50;99.90;;;-2.02;100.00;98820.91;4999411;28;21028;-85
2022/12/19 05:01:02;;;;;;;42.97;17.23;;;-2.50;99.90;;;-2.00;100.00;98819.06;4998180;28;20576;-85
2022/12/19 05:03:33;;;;;;;41.80;17.53;;;-2.50;99.90;;;-1.98;100.00;98808.75;4998679;28;20489;-86
2022/12/19 05:06:09;;;;;;;36.53;17.30;;;-2.40;99.90;;;-1.97;100.00;98807.81;4999681;28;21024;-86
2022/12/19 05:08:43;;;;;;;37.50;18.13;;;-2.50;99.90;;;-1.97;100.00;98808.63;4998239;28;20465;-83
2022/12/19 05:11:15;;;;;;;39.27;18.40;;;-2.40;99.90;;;-1.94;100.00;98812.78;4999239;28;20463;-84
2022/12/19 05:13:49;;;;;;;43.17;18.47;;;-2.30;99.90;;;-1.93;100.00;98801.59;4995631;28;20506;-85
2022/12/19 05:16:20;;;;;;;34.33;16.93;;;-2.40;99.90;;;-1.92;100.00;98803.25;4997306;28;20841;-86
2022/12/19 05:18:50;;;;;;;41.80;18.20;;;-2.30;99.90;;;-1.91;100.00;98817.72;5000627;28;20469;-85
2022/12/19 05:21:20;;;;;;;40.90;17.20;;;-2.30;99.90;;;-1.90;100.00;98820.19;4998581;28;20489;-85
2022/12/19 05:23:51;;;;;;;35.80;16.10;;;-2.30;99.90;;;-1.89;100.00;98816.72;4998094;28;20888;-85
2022/12/19 05:26:20;;;;;;;37.10;17.50;;;-2.40;99.90;;;-1.88;100.00;98826.06;5000049;28;20495;-85
2022/12/19 05:28:51;;;;;;;37.77;17.40;;;-2.40;99.90;;;-1.87;100.00;98829.41;4999585;28;21042;-85
2022/12/19 05:31:22;;;;;;;40.07;17.80;;;-2.30;99.90;;;-1.87;100.00;98832.81;4998749;28;20469;-84
2022/12/19 05:33:52;;;;;;;34.10;16.97;;;-2.40;99.90;;;-1.86;100.00;98825.94;4999312;28;20460;-85
2022/12/19 05:36:23;;;;;;;30.67;15.60;;;-2.30;99.90;;;-1.85;100.00;98832.72;4998375;28;20478;-84
2022/12/19 05:39:01;;;;;;;43.77;19.30;;;-2.40;99.90;;;-1.84;100.00;98829.25;5000803;28;20548;-85
2022/12/19 05:41:31;;;;;;;38.17;17.77;;;-2.40;99.90;;;-1.84;100.00;98827.50;5001439;28;20557;-85
2022/12/19 05:44:01;;;;;;;37.03;19.00;;;-2.40;99.90;;;-1.80;100.00;98811.03;4999345;28;20562;-85
2022/12/19 05:46:30;;;;;;;39.70;17.30;;;-2.20;99.90;;;-1.79;100.00;98817.81;4999779;28;20520;-85
2022/12/19 05:49:00;;;;;;;34.77;17.67;;;-2.10;99.90;;;-1.77;100.00;98825.44;4995923;28;20471;-84
2022/12/19 05:51:31;;;;;;;37.43;18.63;;;-2.10;99.90;;;-1.76;100.00;98833.00;5001205;28;20479;-85
2022/12/19 05:54:03;;;;;;;39.70;16.87;;;-2.10;99.90;;;-1.75;100.00;98834.66;5003477;28;20480;-82
2022/12/19 05:56:33;;;;;;;40.20;18.07;;;-2.10;99.90;;;-1.72;100.00;98825.97;4999932;28;20474;-86
2022/12/19 06:18:12;;;;;;;51.10;17.53;;;-2.40;99.90;;;-2.04;100.00;98838.09;5107182;27;20600;-83
2022/12/19 06:20:42;;;;;;;44.67;16.70;;;-2.50;99.90;;;-2.04;100.00;98832.97;5111304;28;20551;-81
2022/12/19 06:23:11;;;;;;;44.03;17.17;;;-2.50;99.90;;;-2.00;100.00;98833.63;5111255;28;20458;-81
2022/12/19 06:25:41;;;;;;;44.03;17.67;;;-2.50;99.90;;;-1.98;100.00;98840.31;5109543;28;20521;-81
2022/12/19 06:28:12;;;;;;;47.13;17.93;;;-2.40;99.90;;;-1.93;100.00;98840.88;5113867;28;20465;-81
2022/12/19 06:30:42;;;;;;;42.40;17.40;;;-2.40;99.90;;;-1.89;100.00;98837.22;5106318;28;20458;-82
2022/12/19 06:33:13;;;;;;;35.90;15.33;;;-2.30;99.90;;;-1.86;100.00;98824.22;5111224;28;20462;-81
2022/12/19 06:35:44;;;;;;;39.00;17.47;;;-2.30;99.90;;;-1.82;100.00;98820.56;5113795;28;20527;-82
2022/12/19 06:38:14;;;;;;;37.77;16.77;;;-2.30;99.90;;;-1.78;100.00;98822.03;5111960;28;20494;-82
2022/12/19 06:43:30;;;;;;;34.47;16.40;;;-2.10;99.90;;;-1.73;100.00;98826.88;5111596;27;21019;-82
2022/12/19 06:46:00;;;;;;;42.13;16.67;;;-2.20;99.90;;;-1.69;100.00;98826.59;5111516;28;20459;-82
2022/12/19 06:48:33;;;;;;;50.67;18.70;;;-2.20;99.90;;;-1.68;100.00;98820.56;5109168;28;20480;-82
2022/12/19 06:51:02;;;;;;;41.27;16.97;;;-2.20;99.90;;;-1.66;100.00;98823.84;5110138;28;20478;-82
2022/12/19 06:53:33;;;;;;;40.33;18.53;;;-2.20;99.90;;;-1.63;100.00;98828.78;5109687;28;20879;-82
2022/12/19 06:56:04;;;;;;;41.97;18.20;;;-2.10;99.90;;;-1.63;100.00;98826.22;5109065;28;20500;-82
2022/12/19 06:58:35;;;;;;;45.77;19.80;;;-2.10;99.90;;;-1.60;100.00;98820.13;5110209;27;20507;-82
2022/12/19 07:01:04;;;;;;;33.60;16.10;;;-2.10;99.90;;;-1.60;100.00;98823.47;5104000;28;20514;-82
2022/12/19 07:03:41;;;;;;;39.73;18.33;;;-2.10;99.90;;;-1.58;100.00;98821.66;5107460;28;20546;-83
2022/12/19 07:06:11;;;;;;;42.37;17.87;;;-2.10;99.90;;;-1.56;100.00;98816.41;5107164;28;20480;-82
2022/12/19 07:08:42;;;;;;;34.07;16.90;;;-2.10;99.90;;;-1.57;100.00;98815.63;5107091;28;20808;-81
2022/12/19 07:11:12;;;;;;;36.27;16.00;;;-2.10;99.90;;;-1.56;100.00;98824.13;5108224;28;21060;-81
2022/12/19 07:13:41;;;;;;;35.30;17.03;;;-2.10;99.90;;;-1.54;100.00;98823.13;5107662;28;20465;-81
2022/12/19 07:16:11;;;;;;;45.03;19.13;;;-2.10;99.90;;;-1.53;100.00;98824.75;5107284;28;20528;-81
2022/12/19 07:18:43;;;;;;;43.60;18.70;;;-2.10;99.90;;;-1.52;100.00;98816.16;5108228;28;20464;-81
2022/12/19 07:21:13;;;;;;;46.97;17.53;;;-2.00;99.90;;;-1.49;100.00;98824.59;5105936;28;20882;-82
2022/12/19 07:23:44;;;;;;;40.00;17.40;;;-2.00;99.90;;;-1.48;100.00;98823.66;5107587;28;20522;-82
2022/12/19 07:26:13;;;;;;;38.40;17.00;;;-2.00;99.90;;;-1.49;100.00;98829.72;5109814;28;20799;-82
2022/12/19 07:28:45;;;;;;;40.67;16.50;;;-2.00;99.90;;;-1.49;100.00;98827.97;5103932;28;20455;-82
2022/12/19 07:31:15;;;;;;;35.57;15.83;;;-2.00;99.90;;;-1.49;100.00;98820.25;5096010;28;20860;-82
2022/12/19 07:33:47;;;;;;;36.50;17.37;;;-2.00;99.90;;;-1.48;100.00;98828.78;5097054;28;20559;-82
2022/12/19 07:36:17;;;;;;;46.63;18.43;;;-1.90;99.90;;;-1.46;100.00;98834.66;5094185;28;20465;-82
2022/12/19 07:38:47;;;;;;;43.80;18.40;;;-2.00;99.90;;;-1.44;100.00;98830.25;5093915;28;20928;-82
2022/12/19 07:41:17;;;;;;;37.20;18.27;;;-2.00;99.90;;;-1.42;100.00;98836.94;5095326;28;20496;-81
2022/12/19 07:43:46;;;;;;;38.53;16.17;;;-2.00;99.90;;;-1.42;100.00;98836.13;5093759;28;20482;-82
2022/12/19 07:46:16;;;;;;;39.60;17.97;;;-2.00;99.90;;;-1.44;100.00;98833.66;5098282;28;20532;-81
2022/12/19 07:48:46;;;;;;;46.30;18.67;;;-2.00;99.90;;;-1.41;100.00;98848.00;5097381;28;20468;-82
2022/12/19 07:51:16;;;;;;;38.57;17.30;;;-2.00;99.90;;;-1.39;100.00;98838.50;5095433;28;20462;-82
2022/12/19 07:53:47;;;;;;;39.23;17.60;;;-1.90;99.90;;;-1.36;100.00;98840.88;5094705;28;20928;-82
2022/12/19 07:56:19;;;;;;;35.80;18.70;;;-1.90;99.90;;;-1.34;100.00;98844.16;5096005;28;20457;-82
2022/12/19 07:58:48;;;;;;;38.73;18.33;;;-1.90;99.90;;;-1.33;100.00;98850.94;5097515;28;21081;-82
2022/12/19 08:01:19;;;;;;;37.30;17.37;;;-1.90;99.90;;;-1.32;100.00;98843.16;5097277;28;20483;-82
2022/12/19 08:03:52;;;;;;;47.00;18.70;;;-1.90;99.90;;;-1.31;100.00;98839.66;5096443;28;20467;-81
2022/12/19 08:06:20;;;;;;;42.20;19.27;;;-1.80;99.90;;;-1.28;100.00;98838.66;5096781;28;20458;-82
2022/12/19 08:08:51;;;;;;;40.13;16.93;;;-1.80;99.90;;;-1.28;100.00;98847.19;5096390;28;20473;-82
2022/12/19 08:11:26;;;;;;;42.60;19.47;;;-1.80;99.90;;;-1.26;100.00;98852.22;5094518;28;20460;-82
2022/12/19 08:13:56;;;;;;;42.13;19.20;;;-1.80;99.90;;;-1.24;100.00;98851.22;5093537;28;20975;-82
2022/12/19 08:16:28;;;;;;;34.17;17.70;;;-1.80;99.90;;;-1.22;100.00;98853.69;5098824;28;20560;-81
2022/12/19 08:18:58;;;;;;;37.57;17.83;;;-1.70;99.90;;;-1.20;100.00;98844.97;5097515;28;20491;-82
2022/12/19 08:21:29;;;;;;;48.60;18.97;;;-1.70;99.90;;;-1.17;100.00;98842.22;5098695;28;20468;-81
2022/12/19 08:24:00;;;;;;;32.17;16.00;;;-1.70;99.90;;;-1.15;100.00;98831.88;5095427;28;20457;-81
2022/12/19 08:26:30;;;;;;;37.20;17.63;;;-1.60;99.90;;;-1.13;100.00;98837.72;5093564;28;20931;-81
2022/12/19 08:29:08;;;;;;;40.67;16.70;;;-1.60;99.90;;;-1.08;100.00;98825.44;5093989;28;20467;-82
2022/12/19 08:31:39;;;;;;;43.37;19.10;;;-1.50;99.90;;;-1.08;100.00;98822.88;5095508;28;20467;-81
2022/12/19 08:34:11;;;;;;;33.70;16.50;;;-1.40;99.90;;;-1.07;100.00;98820.19;5095263;28;20498;-81
2022/12/19 08:36:42;;;;;;;49.17;17.90;;;-1.50;99.90;;;-1.05;100.00;98817.56;5094411;28;20488;-82
2022/12/19 08:39:11;;;;;;;37.37;17.50;;;-1.50;99.90;;;-1.03;100.00;98823.41;5091475;28;21003;-81
2022/12/19 08:41:41;;;;;;;42.17;18.87;;;-1.50;99.90;;;-1.02;100.00;98825.06;5093957;28;20966;-81
2022/12/19 08:44:12;;;;;;;43.30;18.30;;;-1.50;99.90;;;-1.00;100.00;98812.94;5092875;28;20532;-81
2022/12/19 08:46:42;;;;;;;49.73;17.83;;;-1.50;99.90;;;-0.99;100.00;98827.44;5092819;28;20817;-82
2022/12/19 08:49:20;;;;;;;41.90;17.00;;;-1.50;99.90;;;-0.96;100.00;98814.41;5092931;28;20463;-81
2022/12/19 08:51:50;;;;;;;45.93;17.87;;;-1.50;99.90;;;-0.94;100.00;98814.31;5092560;28;20465;-81
2022/12/19 08:54:21;;;;;;;44.53;18.93;;;-1.50;99.90;;;-0.93;100.00;98821.91;5091902;28;20542;-81
2022/12/19 08:56:51;;;;;;;37.83;17.43;;;-1.50;99.90;;;-0.92;100.00;98831.25;5089001;28;20542;-82
2022/12/19 08:59:22;;;;;;;39.47;17.80;;;-1.40;99.90;;;-0.89;100.00;98831.06;5091428;28;20498;-82
2022/12/19 09:02:00;;;;;;;50.73;19.50;;;-1.30;99.90;;;-0.85;100.00;98822.25;5088653;28;20983;-81
2022/12/19 09:04:32;;;;;;;52.57;18.43;;;-1.30;99.90;;;-0.84;100.00;98812.81;5090235;28;20861;-81
2022/12/19 09:07:22;;;;;;;44.23;19.00;;;-1.30;99.90;;;-0.81;100.00;98807.50;5088318;28;20457;-81
2022/12/19 09:09:52;;;;;;;38.80;19.70;;;-1.30;99.90;;;-0.80;100.00;98796.31;5089352;28;20961;-81
2022/12/19 09:12:22;;;;;;;43.80;19.50;;;-1.30;99.90;;;-0.79;100.00;98801.31;5096104;28;20466;-81
2022/12/19 09:14:53;;;;;;;46.40;19.20;;;-1.30;99.90;;;-0.77;100.00;98804.63;5095833;28;21357;-81
2022/12/19 09:17:21;;;;;;;43.83;19.83;;;-1.20;99.90;;;-0.74;100.00;98806.19;5094831;28;21122;-82
2022/12/19 09:19:53;;;;;;;42.57;19.40;;;-1.30;99.90;;;-0.73;100.00;98800.94;5096451;28;20953;-81
2022/12/19 09:22:23;;;;;;;42.80;19.67;;;-1.20;99.90;;;-0.72;100.00;98787.19;5097916;28;20861;-81
2022/12/19 09:24:58;;;;;;;42.53;18.77;;;-1.20;99.90;;;-0.69;100.00;98776.72;5096538;28;20471;-81
2022/12/19 09:27:27;;;;;;;41.70;18.70;;;-1.20;99.90;;;-0.67;100.00;98762.03;5095556;28;20470;-81
2022/12/19 09:29:56;;;;;;;47.47;20.50;;;-1.20;99.90;;;-0.65;100.00;98770.47;5096892;28;20471;-82
2022/12/19 09:32:26;;;;;;;41.53;18.90;;;-1.10;99.90;;;-0.60;100.00;98772.75;5092790;28;20473;-81
2022/12/19 09:34:58;;;;;;;37.60;18.67;;;-1.00;99.90;;;-0.59;100.00;98788.03;5093465;28;20536;-81
2022/12/19 09:37:27;;;;;;;42.73;19.10;;;-1.10;99.90;;;-0.59;100.00;98785.47;5091734;28;20471;-81
2022/12/19 09:39:58;;;;;;;39.20;17.53;;;-1.00;99.90;;;-0.56;100.00;98779.31;5095961;28;20461;-81
2022/12/19 09:42:57;;;;;;;40.47;18.80;;;-1.00;99.90;;;-0.55;100.00;98789.47;5095048;28;20528;-82
2022/12/19 09:46:02;;;;;;;39.90;18.33;;;-0.90;99.90;;;-0.52;100.00;98788.47;5092674;28;20476;-81
2022/12/19 09:48:32;;;;;;;33.83;17.47;;;-1.00;99.90;;;-0.49;100.00;98783.16;5091887;28;20469;-80
2022/12/19 09:51:12;;;;;;;47.97;18.07;;;-1.00;99.90;;;-0.48;100.00;98778.81;5094463;28;20465;-81
2022/12/19 09:53:58;;;;;;;35.67;15.50;;;-0.90;99.90;;;-0.47;100.00;98785.59;5091219;28;20540;-81
2022/12/19 09:56:35;;;;;;;34.07;16.63;;;-0.90;99.90;;;-0.44;100.00;98775.13;5087143;28;20931;-81
2022/12/19 09:59:26;;;;;;;43.17;18.67;;;-0.90;99.90;;;-0.43;100.00;98775.03;5093521;28;20582;-82
2022/12/19 10:02:50;;;;;;;36.83;17.70;;;-0.90;99.90;;;-0.42;100.00;98768.16;5094910;28;20513;-81
2022/12/19 10:05:29;;;;;;;36.57;18.70;;;-0.90;99.90;;;-0.41;100.00;98765.47;5094056;28;20512;-81
2022/12/19 10:08:30;;;;;;;35.67;17.50;;;-0.90;99.90;;;-0.39;100.00;98762.81;5095898;28;20804;-81
2022/12/19 10:11:11;;;;;;;38.40;17.93;;;-0.90;99.90;;;-0.36;100.00;98765.16;5094709;28;20463;-80
2022/12/19 10:14:22;;;;;;;43.57;19.17;;;-0.90;99.90;;;-0.34;100.00;98766.72;5092085;28;20489;-81
2022/12/19 10:17:11;;;;;;;45.97;19.13;;;-0.80;99.90;;;-0.32;100.00;98761.47;5092894;28;20466;-81
2022/12/19 10:20:27;;;;;;;39.93;18.80;;;-0.70;99.90;;;-0.32;100.00;98757.19;5089491;28;20501;-80
2022/12/19 10:23:16;;;;;;;32.67;15.93;;;-0.70;99.90;;;-0.29;100.00;98753.56;5090384;28;20543;-79
2022/12/19 10:26:07;;;;;;;38.70;18.70;;;-0.70;99.90;;;-0.28;100.00;98744.94;5091982;28;20561;-80
2022/12/19 10:28:59;;;;;;;48.10;19.63;;;-0.70;99.90;;;-0.27;100.00;98744.00;5090339;28;20470;-81
2022/12/19 10:31:36;;;;;;;39.37;18.87;;;-0.70;99.90;;;-0.26;100.00;98746.47;5093123;28;20515;-81
2022/12/19 10:34:19;;;;;;;49.90;20.30;;;-0.80;99.90;;;-0.24;100.00;98736.91;5092584;28;20541;-81
2022/12/19 10:36:54;;;;;;;41.60;19.57;;;-0.70;99.90;;;-0.22;100.00;98737.66;5090485;28;20458;-81
2022/12/19 10:40:03;;;;;;;41.80;19.27;;;-0.60;99.90;;;-0.20;100.00;98745.25;5092299;28;20650;-81
2022/12/19 10:42:51;;;;;;;45.43;20.67;;;-0.60;99.90;;;-0.20;100.00;98742.66;5092137;28;20468;-81
2022/12/19 10:45:24;;;;;;;45.00;19.30;;;-0.60;99.90;;;-0.18;100.00;98743.41;5091887;28;20553;-80
2022/12/19 10:47:57;;;;;;;45.90;18.27;;;-0.60;99.90;;;-0.18;100.00;98733.97;5090590;28;20478;-81
2022/12/19 10:50:30;;;;;;;44.93;19.97;;;-0.60;99.90;;;-0.16;100.00;98733.84;5091377;28;20476;-80
2022/12/19 10:53:10;;;;;;;43.10;18.87;;;-0.60;99.90;;;-0.15;100.00;98732.91;5091130;28;20498;-82
2022/12/19 10:55:47;;;;;;;41.13;19.63;;;-0.60;99.90;;;-0.15;100.00;98720.91;5094998;28;20475;-80
2022/12/19 10:58:26;;;;;;;39.80;19.00;;;-0.60;99.90;;;-0.12;100.00;98719.84;5094961;28;21046;-81
2022/12/19 11:01:12;;;;;;;38.63;19.37;;;-0.50;99.90;;;-0.12;100.00;98725.00;5094965;28;20536;-80